sensor_id;sensor_type;location;lat;lon;timestamp;P1;durP1;ratioP1;P2;durP2;ratioP2
37411;SDS011;23278;52.110;6.050;2023-07-09T00:01:13;6.28;;;5.43;;
37411;SDS011;23278;52.110;6.050;2023-07-09T00:03:43;5.63;;;5.03;;
37411;SDS011;23278;52.110;6.050;2023-07-09T00:06:09;6.15;;;4.75;;
37411;SDS011;23278;52.110;6.050;2023-07-09T00:08:37;7.50;;;5.82;;
37411;SDS011;23278;52.110;6.050;2023-07-09T00:11:09;5.85;;;4.97;;
37411;SDS011;23278;52.110;6.050;2023-07-09T00:13:35;7.75;;;4.90;;
37411;SDS011;23278;52.110;6.050;2023-07-09T00:16:01;8.30;;;6.15;;
37411;SDS011;23278;52.110;6.050;2023-07-09T00:18:36;7.10;;;5.85;;
37411;SDS011;23278;52.110;6.050;2023-07-09T00:21:01;6.70;;;4.70;;
37411;SDS011;23278;52.110;6.050;2023-07-09T00:23:27;8.70;;;4.90;;
37411;SDS011;23278;52.110;6.050;2023-07-09T00:25:55;4.70;;;4.30;;
37411;SDS011;23278;52.110;6.050;2023-07-09T00:28:21;6.25;;;4.80;;
37411;SDS011;23278;52.110;6.050;2023-07-09T00:30:49;4.90;;;4.38;;
37411;SDS011;23278;52.110;6.050;2023-07-09T00:33:16;5.35;;;4.72;;
37411;SDS011;23278;52.110;6.050;2023-07-09T00:35:46;5.57;;;5.00;;
37411;SDS011;23278;52.110;6.050;2023-07-09T00:38:14;5.72;;;5.15;;
37411;SDS011;23278;52.110;6.050;2023-07-09T00:40:46;5.60;;;4.03;;
37411;SDS011;23278;52.110;6.050;2023-07-09T00:43:21;6.25;;;4.78;;
37411;SDS011;23278;52.110;6.050;2023-07-09T00:46:08;5.50;;;4.57;;
37411;SDS011;23278;52.110;6.050;2023-07-09T00:48:43;5.55;;;4.40;;
37411;SDS011;23278;52.110;6.050;2023-07-09T00:51:15;5.28;;;4.47;;
37411;SDS011;23278;52.110;6.050;2023-07-09T00:53:46;7.07;;;4.68;;
37411;SDS011;23278;52.110;6.050;2023-07-09T00:56:16;5.00;;;4.50;;
37411;SDS011;23278;52.110;6.050;2023-07-09T00:58:51;5.53;;;5.03;;
37411;SDS011;23278;52.110;6.050;2023-07-09T01:01:19;6.40;;;4.80;;
37411;SDS011;23278;52.110;6.050;2023-07-09T01:03:56;5.00;;;4.50;;
37411;SDS011;23278;52.110;6.050;2023-07-09T01:06:36;5.32;;;4.43;;
37411;SDS011;23278;52.110;6.050;2023-07-09T01:09:09;5.40;;;4.78;;
37411;SDS011;23278;52.110;6.050;2023-07-09T01:11:36;6.55;;;4.40;;
37411;SDS011;23278;52.110;6.050;2023-07-09T01:14:04;6.70;;;5.60;;
37411;SDS011;23278;52.110;6.050;2023-07-09T01:16:41;5.90;;;4.60;;
37411;SDS011;23278;52.110;6.050;2023-07-09T01:19:12;6.13;;;4.45;;
37411;SDS011;23278;52.110;6.050;2023-07-09T01:21:39;6.90;;;4.40;;
37411;SDS011;23278;52.110;6.050;2023-07-09T01:24:12;6.50;;;4.53;;
37411;SDS011;23278;52.110;6.050;2023-07-09T01:26:40;4.78;;;4.30;;
37411;SDS011;23278;52.110;6.050;2023-07-09T01:29:07;9.05;;;4.63;;
37411;SDS011;23278;52.110;6.050;2023-07-09T01:31:33;7.32;;;4.55;;
37411;SDS011;23278;52.110;6.050;2023-07-09T01:33:59;7.07;;;5.63;;
37411;SDS011;23278;52.110;6.050;2023-07-09T01:36:24;7.22;;;5.00;;
37411;SDS011;23278;52.110;6.050;2023-07-09T01:38:51;5.90;;;5.30;;
37411;SDS011;23278;52.110;6.050;2023-07-09T01:41:19;5.03;;;4.53;;
37411;SDS011;23278;52.110;6.050;2023-07-09T01:43:45;6.30;;;5.10;;
37411;SDS011;23278;52.110;6.050;2023-07-09T01:46:14;6.00;;;4.78;;
37411;SDS011;23278;52.110;6.050;2023-07-09T01:48:40;6.82;;;5.13;;
37411;SDS011;23278;52.110;6.050;2023-07-09T01:51:12;6.88;;;5.57;;
37411;SDS011;23278;52.110;6.050;2023-07-09T01:53:42;5.10;;;4.60;;
37411;SDS011;23278;52.110;6.050;2023-07-09T01:56:09;8.75;;;5.18;;
37411;SDS011;23278;52.110;6.050;2023-07-09T01:58:36;6.45;;;5.80;;
37411;SDS011;23278;52.110;6.050;2023-07-09T02:03:33;9.15;;;5.53;;
37411;SDS011;23278;52.110;6.050;2023-07-09T02:06:00;6.43;;;5.80;;
37411;SDS011;23278;52.110;6.050;2023-07-09T02:08:27;7.43;;;6.65;;
37411;SDS011;23278;52.110;6.050;2023-07-09T02:10:54;6.53;;;5.93;;
37411;SDS011;23278;52.110;6.050;2023-07-09T02:13:20;7.45;;;6.25;;
37411;SDS011;23278;52.110;6.050;2023-07-09T02:15:46;6.60;;;6.00;;
37411;SDS011;23278;52.110;6.050;2023-07-09T02:18:15;7.45;;;4.85;;
37411;SDS011;23278;52.110;6.050;2023-07-09T02:20:42;8.13;;;6.05;;
37411;SDS011;23278;52.110;6.050;2023-07-09T02:23:08;7.90;;;6.00;;
37411;SDS011;23278;52.110;6.050;2023-07-09T02:25:34;8.80;;;6.43;;
37411;SDS011;23278;52.110;6.050;2023-07-09T02:28:00;5.70;;;4.82;;
37411;SDS011;23278;52.110;6.050;2023-07-09T02:30:26;8.18;;;5.95;;
37411;SDS011;23278;52.110;6.050;2023-07-09T02:32:52;6.15;;;5.55;;
37411;SDS011;23278;52.110;6.050;2023-07-09T02:35:19;6.03;;;5.43;;
37411;SDS011;23278;52.110;6.050;2023-07-09T02:37:46;7.22;;;5.30;;
37411;SDS011;23278;52.110;6.050;2023-07-09T02:40:12;4.90;;;4.45;;
37411;SDS011;23278;52.110;6.050;2023-07-09T02:42:38;5.18;;;4.68;;
37411;SDS011;23278;52.110;6.050;2023-07-09T02:45:05;5.78;;;5.18;;
37411;SDS011;23278;52.110;6.050;2023-07-09T02:47:32;6.40;;;5.10;;
37411;SDS011;23278;52.110;6.050;2023-07-09T02:49:59;6.03;;;5.28;;
37411;SDS011;23278;52.110;6.050;2023-07-09T02:52:25;5.15;;;4.65;;
37411;SDS011;23278;52.110;6.050;2023-07-09T02:54:52;9.32;;;5.55;;
37411;SDS011;23278;52.110;6.050;2023-07-09T02:57:18;4.93;;;4.43;;
37411;SDS011;23278;52.110;6.050;2023-07-09T02:59:44;6.85;;;5.38;;
37411;SDS011;23278;52.110;6.050;2023-07-09T03:02:10;7.22;;;6.00;;
37411;SDS011;23278;52.110;6.050;2023-07-09T03:04:36;7.63;;;6.93;;
37411;SDS011;23278;52.110;6.050;2023-07-09T03:07:02;6.43;;;5.68;;
37411;SDS011;23278;52.110;6.050;2023-07-09T03:09:29;8.90;;;6.57;;
37411;SDS011;23278;52.110;6.050;2023-07-09T03:11:55;5.93;;;5.32;;
37411;SDS011;23278;52.110;6.050;2023-07-09T03:14:21;6.93;;;5.10;;
37411;SDS011;23278;52.110;6.050;2023-07-09T03:16:47;6.05;;;4.88;;
37411;SDS011;23278;52.110;6.050;2023-07-09T03:19:13;7.85;;;5.68;;
37411;SDS011;23278;52.110;6.050;2023-07-09T03:21:39;5.85;;;5.15;;
37411;SDS011;23278;52.110;6.050;2023-07-09T03:24:05;7.80;;;5.88;;
37411;SDS011;23278;52.110;6.050;2023-07-09T03:26:32;5.72;;;5.18;;
37411;SDS011;23278;52.110;6.050;2023-07-09T03:28:58;5.88;;;5.28;;
37411;SDS011;23278;52.110;6.050;2023-07-09T03:31:24;5.97;;;4.90;;
37411;SDS011;23278;52.110;6.050;2023-07-09T03:33:51;6.35;;;5.57;;
37411;SDS011;23278;52.110;6.050;2023-07-09T03:36:17;5.43;;;4.70;;
37411;SDS011;23278;52.110;6.050;2023-07-09T03:38:45;5.15;;;4.65;;
37411;SDS011;23278;52.110;6.050;2023-07-09T03:41:11;5.45;;;4.53;;
37411;SDS011;23278;52.110;6.050;2023-07-09T03:43:37;5.15;;;4.22;;
37411;SDS011;23278;52.110;6.050;2023-07-09T03:46:03;4.75;;;4.10;;
37411;SDS011;23278;52.110;6.050;2023-07-09T03:48:29;4.93;;;3.92;;
37411;SDS011;23278;52.110;6.050;2023-07-09T03:50:55;5.22;;;4.72;;
37411;SDS011;23278;52.110;6.050;2023-07-09T03:53:21;5.75;;;4.85;;
37411;SDS011;23278;52.110;6.050;2023-07-09T03:55:51;6.45;;;5.22;;
37411;SDS011;23278;52.110;6.050;2023-07-09T03:58:18;4.90;;;4.43;;
37411;SDS011;23278;52.110;6.050;2023-07-09T04:00:47;5.15;;;4.32;;
37411;SDS011;23278;52.110;6.050;2023-07-09T04:03:13;6.70;;;4.60;;
37411;SDS011;23278;52.110;6.050;2023-07-09T04:05:39;7.00;;;4.53;;
37411;SDS011;23278;52.110;6.050;2023-07-09T04:08:05;6.30;;;4.97;;
37411;SDS011;23278;52.110;6.050;2023-07-09T04:10:31;6.63;;;5.03;;
37411;SDS011;23278;52.110;6.050;2023-07-09T04:12:57;5.53;;;4.22;;
37411;SDS011;23278;52.110;6.050;2023-07-09T04:15:23;5.28;;;4.72;;
37411;SDS011;23278;52.110;6.050;2023-07-09T04:17:49;10.23;;;5.22;;
37411;SDS011;23278;52.110;6.050;2023-07-09T04:20:16;6.80;;;5.43;;
37411;SDS011;23278;52.110;6.050;2023-07-09T04:22:42;5.45;;;4.72;;
37411;SDS011;23278;52.110;6.050;2023-07-09T04:25:09;6.22;;;4.72;;
37411;SDS011;23278;52.110;6.050;2023-07-09T04:27:36;6.97;;;5.05;;
37411;SDS011;23278;52.110;6.050;2023-07-09T04:30:02;5.78;;;4.80;;
37411;SDS011;23278;52.110;6.050;2023-07-09T04:32:30;6.90;;;4.35;;
37411;SDS011;23278;52.110;6.050;2023-07-09T04:34:59;5.55;;;4.60;;
37411;SDS011;23278;52.110;6.050;2023-07-09T04:37:25;5.30;;;4.80;;
37411;SDS011;23278;52.110;6.050;2023-07-09T04:39:51;4.93;;;4.32;;
37411;SDS011;23278;52.110;6.050;2023-07-09T04:42:17;4.80;;;4.25;;
37411;SDS011;23278;52.110;6.050;2023-07-09T04:44:44;5.32;;;4.82;;
37411;SDS011;23278;52.110;6.050;2023-07-09T04:47:11;5.90;;;4.90;;
37411;SDS011;23278;52.110;6.050;2023-07-09T04:49:40;7.70;;;5.65;;
37411;SDS011;23278;52.110;6.050;2023-07-09T04:52:07;5.50;;;5.00;;
37411;SDS011;23278;52.110;6.050;2023-07-09T04:54:37;6.10;;;4.70;;
37411;SDS011;23278;52.110;6.050;2023-07-09T04:57:05;6.55;;;5.50;;
37411;SDS011;23278;52.110;6.050;2023-07-09T04:59:34;5.93;;;5.18;;
37411;SDS011;23278;52.110;6.050;2023-07-09T05:02:00;5.78;;;5.13;;
37411;SDS011;23278;52.110;6.050;2023-07-09T05:04:30;5.88;;;5.15;;
37411;SDS011;23278;52.110;6.050;2023-07-09T05:07:02;7.13;;;4.93;;
37411;SDS011;23278;52.110;6.050;2023-07-09T05:09:28;6.45;;;4.60;;
37411;SDS011;23278;52.110;6.050;2023-07-09T05:11:54;6.93;;;4.78;;
37411;SDS011;23278;52.110;6.050;2023-07-09T05:14:20;5.25;;;4.47;;
37411;SDS011;23278;52.110;6.050;2023-07-09T05:16:46;5.97;;;4.82;;
37411;SDS011;23278;52.110;6.050;2023-07-09T05:19:12;6.97;;;4.53;;
37411;SDS011;23278;52.110;6.050;2023-07-09T05:21:41;8.90;;;6.57;;
37411;SDS011;23278;52.110;6.050;2023-07-09T05:24:07;5.75;;;5.25;;
37411;SDS011;23278;52.110;6.050;2023-07-09T05:26:41;5.68;;;5.07;;
37411;SDS011;23278;52.110;6.050;2023-07-09T05:29:07;6.15;;;5.50;;
37411;SDS011;23278;52.110;6.050;2023-07-09T05:31:33;5.95;;;5.25;;
37411;SDS011;23278;52.110;6.050;2023-07-09T05:33:59;6.97;;;5.88;;
37411;SDS011;23278;52.110;6.050;2023-07-09T05:36:26;8.63;;;6.18;;
37411;SDS011;23278;52.110;6.050;2023-07-09T05:38:54;12.82;;;8.57;;
37411;SDS011;23278;52.110;6.050;2023-07-09T05:41:20;9.23;;;8.27;;
37411;SDS011;23278;52.110;6.050;2023-07-09T05:43:50;7.65;;;6.82;;
37411;SDS011;23278;52.110;6.050;2023-07-09T05:46:21;7.47;;;6.65;;
37411;SDS011;23278;52.110;6.050;2023-07-09T05:48:48;9.25;;;8.35;;
37411;SDS011;23278;52.110;6.050;2023-07-09T05:51:14;8.38;;;7.30;;
37411;SDS011;23278;52.110;6.050;2023-07-09T05:53:40;9.18;;;7.40;;
37411;SDS011;23278;52.110;6.050;2023-07-09T05:56:07;8.70;;;7.70;;
37411;SDS011;23278;52.110;6.050;2023-07-09T05:58:33;10.40;;;9.23;;
37411;SDS011;23278;52.110;6.050;2023-07-09T06:00:59;11.27;;;10.05;;
37411;SDS011;23278;52.110;6.050;2023-07-09T06:03:26;12.00;;;8.93;;
37411;SDS011;23278;52.110;6.050;2023-07-09T06:05:52;10.23;;;7.63;;
37411;SDS011;23278;52.110;6.050;2023-07-09T06:08:19;10.23;;;7.78;;
37411;SDS011;23278;52.110;6.050;2023-07-09T06:10:57;9.32;;;7.72;;
37411;SDS011;23278;52.110;6.050;2023-07-09T06:13:24;10.70;;;7.03;;
37411;SDS011;23278;52.110;6.050;2023-07-09T06:15:52;7.28;;;6.53;;
37411;SDS011;23278;52.110;6.050;2023-07-09T06:18:19;9.80;;;7.18;;
37411;SDS011;23278;52.110;6.050;2023-07-09T06:20:49;7.80;;;6.30;;
37411;SDS011;23278;52.110;6.050;2023-07-09T06:23:16;8.95;;;7.55;;
37411;SDS011;23278;52.110;6.050;2023-07-09T06:25:43;11.60;;;7.50;;
37411;SDS011;23278;52.110;6.050;2023-07-09T06:28:13;9.77;;;6.35;;
37411;SDS011;23278;52.110;6.050;2023-07-09T06:30:40;8.40;;;6.95;;
37411;SDS011;23278;52.110;6.050;2023-07-09T06:33:06;7.32;;;6.63;;
37411;SDS011;23278;52.110;6.050;2023-07-09T06:35:32;9.50;;;6.47;;
37411;SDS011;23278;52.110;6.050;2023-07-09T06:37:58;8.63;;;6.90;;
37411;SDS011;23278;52.110;6.050;2023-07-09T06:40:24;7.07;;;5.72;;
37411;SDS011;23278;52.110;6.050;2023-07-09T06:42:50;7.13;;;5.57;;
37411;SDS011;23278;52.110;6.050;2023-07-09T06:45:24;10.63;;;6.68;;
37411;SDS011;23278;52.110;6.050;2023-07-09T06:47:50;7.25;;;5.53;;
37411;SDS011;23278;52.110;6.050;2023-07-09T06:50:16;8.00;;;6.43;;
37411;SDS011;23278;52.110;6.050;2023-07-09T06:52:42;6.72;;;6.03;;
37411;SDS011;23278;52.110;6.050;2023-07-09T06:55:09;7.57;;;5.72;;
37411;SDS011;23278;52.110;6.050;2023-07-09T06:57:35;7.40;;;6.47;;
37411;SDS011;23278;52.110;6.050;2023-07-09T07:00:01;6.88;;;6.18;;
37411;SDS011;23278;52.110;6.050;2023-07-09T07:02:28;8.75;;;6.20;;
37411;SDS011;23278;52.110;6.050;2023-07-09T07:04:53;7.50;;;5.90;;
37411;SDS011;23278;52.110;6.050;2023-07-09T07:07:20;7.35;;;6.65;;
37411;SDS011;23278;52.110;6.050;2023-07-09T07:09:46;8.02;;;5.85;;
37411;SDS011;23278;52.110;6.050;2023-07-09T07:12:19;6.00;;;5.38;;
37411;SDS011;23278;52.110;6.050;2023-07-09T07:14:50;9.55;;;6.35;;
37411;SDS011;23278;52.110;6.050;2023-07-09T07:17:16;10.70;;;5.72;;
37411;SDS011;23278;52.110;6.050;2023-07-09T07:19:54;7.13;;;6.10;;
37411;SDS011;23278;52.110;6.050;2023-07-09T07:22:20;7.95;;;5.72;;
37411;SDS011;23278;52.110;6.050;2023-07-09T07:24:45;6.80;;;6.10;;
37411;SDS011;23278;52.110;6.050;2023-07-09T07:27:11;6.55;;;5.68;;
37411;SDS011;23278;52.110;6.050;2023-07-09T07:29:37;5.70;;;4.55;;
37411;SDS011;23278;52.110;6.050;2023-07-09T07:32:06;7.10;;;5.25;;
37411;SDS011;23278;52.110;6.050;2023-07-09T07:34:33;7.88;;;5.18;;
37411;SDS011;23278;52.110;6.050;2023-07-09T07:37:01;8.13;;;6.05;;
37411;SDS011;23278;52.110;6.050;2023-07-09T07:39:27;7.95;;;4.55;;
37411;SDS011;23278;52.110;6.050;2023-07-09T07:41:53;5.35;;;4.47;;
37411;SDS011;23278;52.110;6.050;2023-07-09T07:44:21;8.82;;;4.82;;
37411;SDS011;23278;52.110;6.050;2023-07-09T07:46:47;6.57;;;5.88;;
37411;SDS011;23278;52.110;6.050;2023-07-09T07:49:13;6.10;;;5.00;;
37411;SDS011;23278;52.110;6.050;2023-07-09T07:51:39;6.22;;;5.28;;
37411;SDS011;23278;52.110;6.050;2023-07-09T07:54:06;10.07;;;5.03;;
37411;SDS011;23278;52.110;6.050;2023-07-09T07:56:34;8.75;;;4.78;;
37411;SDS011;23278;52.110;6.050;2023-07-09T07:58:59;12.00;;;5.07;;
37411;SDS011;23278;52.110;6.050;2023-07-09T08:01:25;8.23;;;5.10;;
37411;SDS011;23278;52.110;6.050;2023-07-09T08:03:52;8.48;;;5.05;;
37411;SDS011;23278;52.110;6.050;2023-07-09T08:06:17;6.38;;;4.90;;
37411;SDS011;23278;52.110;6.050;2023-07-09T08:08:43;7.57;;;5.00;;
37411;SDS011;23278;52.110;6.050;2023-07-09T08:11:09;5.55;;;4.60;;
37411;SDS011;23278;52.110;6.050;2023-07-09T08:13:35;6.38;;;5.70;;
37411;SDS011;23278;52.110;6.050;2023-07-09T08:16:03;9.25;;;5.47;;
37411;SDS011;23278;52.110;6.050;2023-07-09T08:18:30;8.75;;;5.38;;
37411;SDS011;23278;52.110;6.050;2023-07-09T08:20:58;5.95;;;4.88;;
37411;SDS011;23278;52.110;6.050;2023-07-09T08:23:25;8.63;;;5.38;;
37411;SDS011;23278;52.110;6.050;2023-07-09T08:25:58;5.93;;;4.70;;
37411;SDS011;23278;52.110;6.050;2023-07-09T08:28:25;4.65;;;4.03;;
37411;SDS011;23278;52.110;6.050;2023-07-09T08:30:54;4.75;;;3.80;;
37411;SDS011;23278;52.110;6.050;2023-07-09T08:33:21;6.88;;;5.00;;
37411;SDS011;23278;52.110;6.050;2023-07-09T08:35:49;5.63;;;4.43;;
37411;SDS011;23278;52.110;6.050;2023-07-09T08:38:15;7.53;;;5.32;;
37411;SDS011;23278;52.110;6.050;2023-07-09T08:40:43;6.43;;;5.45;;
37411;SDS011;23278;52.110;6.050;2023-07-09T08:46:01;5.78;;;4.80;;
37411;SDS011;23278;52.110;6.050;2023-07-09T08:48:44;5.53;;;4.32;;
37411;SDS011;23278;52.110;6.050;2023-07-09T08:51:14;5.53;;;4.57;;
37411;SDS011;23278;52.110;6.050;2023-07-09T08:53:54;7.55;;;5.20;;
37411;SDS011;23278;52.110;6.050;2023-07-09T08:56:23;8.10;;;5.73;;
37411;SDS011;23278;52.110;6.050;2023-07-09T08:58:50;8.32;;;5.68;;
37411;SDS011;23278;52.110;6.050;2023-07-09T09:01:28;6.47;;;4.07;;
37411;SDS011;23278;52.110;6.050;2023-07-09T09:06:51;7.45;;;4.82;;
37411;SDS011;23278;52.110;6.050;2023-07-09T09:12:17;9.05;;;5.07;;
37411;SDS011;23278;52.110;6.050;2023-07-09T09:14:57;7.70;;;4.90;;
37411;SDS011;23278;52.110;6.050;2023-07-09T09:17:27;3.88;;;3.35;;
37411;SDS011;23278;52.110;6.050;2023-07-09T09:22:21;6.95;;;4.85;;
37411;SDS011;23278;52.110;6.050;2023-07-09T09:27:37;5.70;;;4.82;;
37411;SDS011;23278;52.110;6.050;2023-07-09T09:30:04;6.68;;;5.10;;
37411;SDS011;23278;52.110;6.050;2023-07-09T09:32:44;6.72;;;4.50;;
37411;SDS011;23278;52.110;6.050;2023-07-09T09:35:16;5.88;;;5.28;;
37411;SDS011;23278;52.110;6.050;2023-07-09T09:37:49;5.57;;;4.75;;
37411;SDS011;23278;52.110;6.050;2023-07-09T09:40:17;5.80;;;4.30;;
37411;SDS011;23278;52.110;6.050;2023-07-09T09:42:49;5.65;;;4.03;;
37411;SDS011;23278;52.110;6.050;2023-07-09T09:45:17;12.65;;;4.95;;
37411;SDS011;23278;52.110;6.050;2023-07-09T09:47:46;8.40;;;5.38;;
37411;SDS011;23278;52.110;6.050;2023-07-09T09:50:14;6.82;;;4.43;;
37411;SDS011;23278;52.110;6.050;2023-07-09T09:52:44;6.13;;;5.13;;
37411;SDS011;23278;52.110;6.050;2023-07-09T09:55:27;6.90;;;5.43;;
37411;SDS011;23278;52.110;6.050;2023-07-09T09:57:55;7.35;;;4.75;;
37411;SDS011;23278;52.110;6.050;2023-07-09T10:00:23;5.45;;;3.95;;
37411;SDS011;23278;52.110;6.050;2023-07-09T10:03:01;6.15;;;4.50;;
37411;SDS011;23278;52.110;6.050;2023-07-09T10:05:33;7.53;;;4.63;;
37411;SDS011;23278;52.110;6.050;2023-07-09T10:14:00;6.85;;;4.93;;
37411;SDS011;23278;52.110;6.050;2023-07-09T10:16:40;6.13;;;5.53;;
37411;SDS011;23278;52.110;6.050;2023-07-09T10:19:14;7.28;;;6.10;;
37411;SDS011;23278;52.110;6.050;2023-07-09T10:21:57;5.78;;;4.43;;
37411;SDS011;23278;52.110;6.050;2023-07-09T10:24:32;6.32;;;4.70;;
37411;SDS011;23278;52.110;6.050;2023-07-09T10:27:10;7.68;;;5.00;;
37411;SDS011;23278;52.110;6.050;2023-07-09T10:32:25;5.63;;;4.97;;
37411;SDS011;23278;52.110;6.050;2023-07-09T10:35:23;6.07;;;4.22;;
37411;SDS011;23278;52.110;6.050;2023-07-09T10:43:04;8.13;;;4.60;;
37411;SDS011;23278;52.110;6.050;2023-07-09T10:45:39;5.47;;;4.68;;
37411;SDS011;23278;52.110;6.050;2023-07-09T10:48:20;7.03;;;3.72;;
37411;SDS011;23278;52.110;6.050;2023-07-09T10:51:00;7.90;;;5.00;;
37411;SDS011;23278;52.110;6.050;2023-07-09T10:53:29;8.75;;;5.13;;
37411;SDS011;23278;52.110;6.050;2023-07-09T10:56:01;6.80;;;4.85;;
37411;SDS011;23278;52.110;6.050;2023-07-09T10:58:37;6.50;;;4.30;;
37411;SDS011;23278;52.110;6.050;2023-07-09T11:01:32;6.22;;;4.70;;
37411;SDS011;23278;52.110;6.050;2023-07-09T11:04:04;5.00;;;4.50;;
37411;SDS011;23278;52.110;6.050;2023-07-09T11:06:36;4.95;;;3.80;;
37411;SDS011;23278;52.110;6.050;2023-07-09T11:09:26;4.35;;;3.28;;
37411;SDS011;23278;52.110;6.050;2023-07-09T11:11:57;6.30;;;4.22;;
37411;SDS011;23278;52.110;6.050;2023-07-09T11:14:28;4.60;;;3.90;;
37411;SDS011;23278;52.110;6.050;2023-07-09T11:17:17;6.25;;;3.80;;
37411;SDS011;23278;52.110;6.050;2023-07-09T11:19:45;4.30;;;3.17;;
37411;SDS011;23278;52.110;6.050;2023-07-09T11:22:23;4.88;;;4.13;;
37411;SDS011;23278;52.110;6.050;2023-07-09T11:24:52;4.72;;;3.65;;
37411;SDS011;23278;52.110;6.050;2023-07-09T11:27:31;7.80;;;3.50;;
37411;SDS011;23278;52.110;6.050;2023-07-09T11:32:24;3.67;;;3.33;;
37411;SDS011;23278;52.110;6.050;2023-07-09T11:34:50;3.83;;;3.53;;
37411;SDS011;23278;52.110;6.050;2023-07-09T11:37:16;5.13;;;3.67;;
37411;SDS011;23278;52.110;6.050;2023-07-09T11:42:26;3.22;;;2.72;;
37411;SDS011;23278;52.110;6.050;2023-07-09T11:45:11;5.85;;;3.92;;
37411;SDS011;23278;52.110;6.050;2023-07-09T11:47:41;3.67;;;2.78;;
37411;SDS011;23278;52.110;6.050;2023-07-09T11:52:51;4.15;;;3.50;;
37411;SDS011;23278;52.110;6.050;2023-07-09T11:55:40;3.47;;;3.03;;
37411;SDS011;23278;52.110;6.050;2023-07-09T11:58:08;4.50;;;4.10;;
37411;SDS011;23278;52.110;6.050;2023-07-09T12:03:16;3.70;;;2.72;;
37411;SDS011;23278;52.110;6.050;2023-07-09T12:05:50;5.05;;;3.67;;
37411;SDS011;23278;52.110;6.050;2023-07-09T12:08:26;4.60;;;3.30;;
37411;SDS011;23278;52.110;6.050;2023-07-09T12:11:03;4.30;;;2.90;;
37411;SDS011;23278;52.110;6.050;2023-07-09T12:13:39;2.95;;;2.65;;
37411;SDS011;23278;52.110;6.050;2023-07-09T12:16:22;6.35;;;3.05;;
37411;SDS011;23278;52.110;6.050;2023-07-09T12:18:50;6.22;;;3.97;;
37411;SDS011;23278;52.110;6.050;2023-07-09T12:21:16;8.48;;;3.72;;
37411;SDS011;23278;52.110;6.050;2023-07-09T12:23:42;5.30;;;3.05;;
37411;SDS011;23278;52.110;6.050;2023-07-09T12:26:17;6.15;;;2.78;;
37411;SDS011;23278;52.110;6.050;2023-07-09T12:31:17;3.75;;;2.90;;
37411;SDS011;23278;52.110;6.050;2023-07-09T12:33:47;7.50;;;3.38;;
37411;SDS011;23278;52.110;6.050;2023-07-09T12:36:14;7.30;;;3.03;;
37411;SDS011;23278;52.110;6.050;2023-07-09T12:38:44;4.30;;;2.50;;
37411;SDS011;23278;52.110;6.050;2023-07-09T12:41:35;4.82;;;3.03;;
37411;SDS011;23278;52.110;6.050;2023-07-09T12:44:17;4.55;;;2.72;;
37411;SDS011;23278;52.110;6.050;2023-07-09T12:46:45;3.60;;;2.55;;
37411;SDS011;23278;52.110;6.050;2023-07-09T12:49:37;4.32;;;3.58;;
37411;SDS011;23278;52.110;6.050;2023-07-09T12:52:10;4.00;;;2.95;;
37411;SDS011;23278;52.110;6.050;2023-07-09T12:54:41;3.90;;;3.03;;
37411;SDS011;23278;52.110;6.050;2023-07-09T12:57:13;4.38;;;2.85;;
37411;SDS011;23278;52.110;6.050;2023-07-09T12:59:42;3.33;;;2.30;;
37411;SDS011;23278;52.110;6.050;2023-07-09T13:05:05;4.82;;;2.70;;
37411;SDS011;23278;52.110;6.050;2023-07-09T13:07:42;3.42;;;2.58;;
37411;SDS011;23278;52.110;6.050;2023-07-09T13:10:27;5.05;;;2.70;;
37411;SDS011;23278;52.110;6.050;2023-07-09T13:12:56;2.83;;;2.00;;
37411;SDS011;23278;52.110;6.050;2023-07-09T13:15:46;6.10;;;2.60;;
37411;SDS011;23278;52.110;6.050;2023-07-09T13:18:15;3.35;;;2.22;;
37411;SDS011;23278;52.110;6.050;2023-07-09T13:20:42;2.92;;;2.13;;
37411;SDS011;23278;52.110;6.050;2023-07-09T13:23:31;6.68;;;2.00;;
37411;SDS011;23278;52.110;6.050;2023-07-09T13:25:57;3.65;;;2.72;;
37411;SDS011;23278;52.110;6.050;2023-07-09T13:28:25;5.70;;;2.67;;
37411;SDS011;23278;52.110;6.050;2023-07-09T13:33:43;4.93;;;2.72;;
37411;SDS011;23278;52.110;6.050;2023-07-09T13:36:10;3.40;;;2.35;;
37411;SDS011;23278;52.110;6.050;2023-07-09T13:38:38;5.43;;;2.67;;
37411;SDS011;23278;52.110;6.050;2023-07-09T13:41:14;4.05;;;2.17;;
37411;SDS011;23278;52.110;6.050;2023-07-09T13:43:43;5.78;;;2.53;;
37411;SDS011;23278;52.110;6.050;2023-07-09T13:46:11;3.22;;;2.28;;
37411;SDS011;23278;52.110;6.050;2023-07-09T13:48:42;4.30;;;2.25;;
37411;SDS011;23278;52.110;6.050;2023-07-09T13:51:17;3.72;;;1.80;;
37411;SDS011;23278;52.110;6.050;2023-07-09T13:53:48;5.47;;;1.98;;
37411;SDS011;23278;52.110;6.050;2023-07-09T13:56:17;2.70;;;2.15;;
37411;SDS011;23278;52.110;6.050;2023-07-09T13:58:43;6.50;;;1.88;;
37411;SDS011;23278;52.110;6.050;2023-07-09T14:01:17;5.28;;;1.83;;
37411;SDS011;23278;52.110;6.050;2023-07-09T14:03:57;4.53;;;1.83;;
37411;SDS011;23278;52.110;6.050;2023-07-09T14:06:24;4.38;;;2.35;;
37411;SDS011;23278;52.110;6.050;2023-07-09T14:08:49;2.28;;;1.90;;
37411;SDS011;23278;52.110;6.050;2023-07-09T14:11:19;3.53;;;2.03;;
37411;SDS011;23278;52.110;6.050;2023-07-09T14:13:45;3.45;;;2.33;;
37411;SDS011;23278;52.110;6.050;2023-07-09T14:16:19;9.55;;;3.30;;
37411;SDS011;23278;52.110;6.050;2023-07-09T14:18:45;6.95;;;4.75;;
37411;SDS011;23278;52.110;6.050;2023-07-09T14:21:12;4.55;;;3.95;;
37411;SDS011;23278;52.110;6.050;2023-07-09T14:23:44;4.97;;;4.40;;
37411;SDS011;23278;52.110;6.050;2023-07-09T14:26:10;5.57;;;4.15;;
37411;SDS011;23278;52.110;6.050;2023-07-09T14:28:36;7.10;;;4.25;;
37411;SDS011;23278;52.110;6.050;2023-07-09T14:31:04;4.90;;;4.22;;
37411;SDS011;23278;52.110;6.050;2023-07-09T14:33:38;7.50;;;4.50;;
37411;SDS011;23278;52.110;6.050;2023-07-09T14:36:04;4.72;;;3.60;;
37411;SDS011;23278;52.110;6.050;2023-07-09T14:38:30;7.65;;;3.45;;
37411;SDS011;23278;52.110;6.050;2023-07-09T14:40:57;3.92;;;3.53;;
37411;SDS011;23278;52.110;6.050;2023-07-09T14:43:25;4.20;;;3.50;;
37411;SDS011;23278;52.110;6.050;2023-07-09T14:45:58;4.53;;;3.05;;
37411;SDS011;23278;52.110;6.050;2023-07-09T14:48:24;4.93;;;2.97;;
37411;SDS011;23278;52.110;6.050;2023-07-09T14:50:50;5.63;;;3.00;;
37411;SDS011;23278;52.110;6.050;2023-07-09T14:55:52;6.57;;;3.15;;
37411;SDS011;23278;52.110;6.050;2023-07-09T14:58:20;5.53;;;2.78;;
37411;SDS011;23278;52.110;6.050;2023-07-09T15:00:47;4.80;;;3.25;;
37411;SDS011;23278;52.110;6.050;2023-07-09T15:03:24;5.75;;;3.30;;
37411;SDS011;23278;52.110;6.050;2023-07-09T15:05:57;3.50;;;2.80;;
37411;SDS011;23278;52.110;6.050;2023-07-09T15:08:26;17.10;;;3.63;;
37411;SDS011;23278;52.110;6.050;2023-07-09T15:10:52;5.28;;;3.80;;
37411;SDS011;23278;52.110;6.050;2023-07-09T15:13:23;5.40;;;3.17;;
37411;SDS011;23278;52.110;6.050;2023-07-09T15:15:55;5.15;;;3.33;;
37411;SDS011;23278;52.110;6.050;2023-07-09T15:18:21;8.57;;;3.78;;
37411;SDS011;23278;52.110;6.050;2023-07-09T15:21:05;8.63;;;3.05;;
37411;SDS011;23278;52.110;6.050;2023-07-09T15:23:32;8.50;;;3.00;;
37411;SDS011;23278;52.110;6.050;2023-07-09T15:26:08;3.53;;;2.22;;
37411;SDS011;23278;52.110;6.050;2023-07-09T15:28:39;3.83;;;2.47;;
37411;SDS011;23278;52.110;6.050;2023-07-09T15:31:06;4.05;;;2.60;;
37411;SDS011;23278;52.110;6.050;2023-07-09T15:36:04;3.15;;;2.03;;
37411;SDS011;23278;52.110;6.050;2023-07-09T15:38:39;4.60;;;2.22;;
37411;SDS011;23278;52.110;6.050;2023-07-09T15:41:13;4.10;;;1.85;;
37411;SDS011;23278;52.110;6.050;2023-07-09T15:43:43;4.55;;;2.13;;
37411;SDS011;23278;52.110;6.050;2023-07-09T15:46:11;5.20;;;1.73;;
37411;SDS011;23278;52.110;6.050;2023-07-09T15:48:43;4.63;;;1.75;;
37411;SDS011;23278;52.110;6.050;2023-07-09T15:51:10;4.35;;;2.33;;
37411;SDS011;23278;52.110;6.050;2023-07-09T15:53:37;5.43;;;1.95;;
37411;SDS011;23278;52.110;6.050;2023-07-09T15:56:05;5.20;;;1.85;;